Time;durP1;ratioP1;P1;durP2;ratioP2;P2;SDS_P1;SDS_P2;PMS_P1;PMS_P2;Temp;Humidity;BMP_temperature;BMP_pressure;BME280_temperature;BME280_humidity;BME280_pressure;Samples;Min_cycle;Max_cycle;Signal;HPM_P1;HPM_P2
2022/05/02 00:02:07;;;;;;;11.73;7.47;;;7.70;99.90;;;;;;5051786;28;20055;-81
2022/05/02 00:04:33;;;;;;;11.10;7.27;;;7.90;99.90;;;;;;5049390;28;20286;-81
2022/05/02 00:06:58;;;;;;;9.95;7.43;;;7.30;99.90;;;;;;5033577;28;20044;-82
2022/05/02 00:09:24;;;;;;;11.27;7.50;;;7.30;99.90;;;;;;5052555;28;21069;-81
2022/05/02 00:11:50;;;;;;;9.93;7.53;;;7.30;99.90;;;;;;5035359;28;20444;-82
2022/05/02 00:14:15;;;;;;;11.03;7.50;;;7.30;99.90;;;;;;5052260;28;20432;-81
2022/05/02 00:16:41;;;;;;;11.43;8.07;;;7.20;99.90;;;;;;5052399;28;20044;-81
2022/05/02 00:19:07;;;;;;;13.50;7.93;;;7.20;99.90;;;;;;5050167;28;20295;-82
2022/05/02 00:21:33;;;;;;;11.45;8.20;;;7.30;99.90;;;;;;5052557;28;20046;-82
2022/05/02 00:23:58;;;;;;;10.77;7.97;;;7.10;99.90;;;;;;5052151;28;20052;-82
2022/05/02 00:26:24;;;;;;;11.17;7.67;;;7.10;99.90;;;;;;5032574;28;20295;-82
2022/05/02 00:28:50;;;;;;;10.32;7.28;;;7.10;99.90;;;;;;5048841;28;20061;-81
2022/05/02 00:31:16;;;;;;;12.18;7.82;;;7.20;99.90;;;;;;5049357;28;20493;-82
2022/05/02 00:33:41;;;;;;;13.93;8.20;;;7.00;99.90;;;;;;5035068;28;20048;-83
2022/05/02 00:36:07;;;;;;;11.03;8.20;;;7.00;99.90;;;;;;5050517;28;20041;-81
2022/05/02 00:38:33;;;;;;;11.07;8.35;;;7.00;99.90;;;;;;5052565;28;20515;-82
2022/05/02 00:40:59;;;;;;;12.88;8.68;;;7.00;99.90;;;;;;5051633;28;20343;-81
2022/05/02 00:43:25;;;;;;;12.05;7.47;;;7.00;99.90;;;;;;5049637;28;20102;-80
2022/05/02 00:45:50;;;;;;;11.68;8.52;;;6.90;99.90;;;;;;5048502;28;20055;-81
2022/05/02 00:48:16;;;;;;;12.73;8.50;;;6.90;99.90;;;;;;5035883;28;20047;-82
2022/05/02 00:50:44;;;;;;;12.87;8.80;;;6.90;99.90;;;;;;5051792;28;20270;-81
2022/05/02 00:53:17;;;;;;;12.85;8.68;;;6.90;99.90;;;;;;5047122;28;20336;-82
2022/05/02 00:55:44;;;;;;;13.88;8.63;;;6.80;99.90;;;;;;5045592;28;20062;-83
2022/05/02 00:58:13;;;;;;;10.43;8.25;;;6.80;99.90;;;;;;5027182;28;20028;-82
2022/05/02 01:00:39;;;;;;;13.70;9.23;;;6.70;99.90;;;;;;5044734;28;20075;-81
2022/05/02 01:03:07;;;;;;;10.93;8.98;;;6.70;99.90;;;;;;5032419;28;20076;-82
2022/05/02 01:08:28;;;;;;;12.48;9.20;;;6.70;99.90;;;;;;5047728;28;20072;-81
2022/05/02 01:10:56;;;;;;;11.13;9.23;;;6.70;99.90;;;;;;5046731;28;20492;-81
2022/05/02 01:13:40;;;;;;;12.45;8.98;;;6.70;99.90;;;;;;5048647;28;20400;-81
2022/05/02 01:16:13;;;;;;;12.10;8.73;;;6.70;99.90;;;;;;5056841;28;20131;-82
2022/05/02 01:18:38;;;;;;;11.75;9.55;;;6.70;99.90;;;;;;5042213;28;20130;-81
2022/05/02 01:21:15;;;;;;;15.47;9.43;;;7.00;99.90;;;;;;5033783;28;20475;-82
2022/05/02 01:23:47;;;;;;;13.38;9.68;;;6.70;99.90;;;;;;5047840;28;20308;-81
2022/05/02 01:26:13;;;;;;;12.52;9.23;;;6.70;99.90;;;;;;5050432;28;20047;-81
2022/05/02 01:28:44;;;;;;;14.45;10.35;;;6.70;99.90;;;;;;5050807;28;20074;-82
2022/05/02 01:31:10;;;;;;;12.57;9.95;;;6.70;99.90;;;;;;5044588;28;20041;-81
2022/05/02 01:33:36;;;;;;;12.55;9.70;;;6.70;99.90;;;;;;5038241;28;20436;-83
2022/05/02 01:36:03;;;;;;;12.98;10.07;;;6.60;99.90;;;;;;5035619;28;20033;-82
2022/05/02 01:38:29;;;;;;;11.60;9.73;;;6.60;99.90;;;;;;5048467;28;20040;-81
2022/05/02 01:40:55;;;;;;;17.52;10.10;;;6.60;99.90;;;;;;5046397;28;20062;-82
2022/05/02 01:43:21;;;;;;;15.07;10.20;;;6.50;99.90;;;;;;5043915;28;20037;-82
2022/05/02 01:45:46;;;;;;;17.42;10.48;;;6.50;99.90;;;;;;5040879;28;20041;-82
2022/05/02 01:48:12;;;;;;;15.00;10.67;;;6.50;99.90;;;;;;5042586;28;20045;-81
2022/05/02 01:50:38;;;;;;;15.17;10.67;;;6.50;99.90;;;;;;5065137;28;20063;-81
2022/05/02 01:53:03;;;;;;;17.23;11.25;;;6.40;99.90;;;;;;5054374;28;20074;-82
2022/05/02 01:55:29;;;;;;;15.87;10.70;;;6.40;99.90;;;;;;5045124;28;20040;-81
2022/05/02 01:57:55;;;;;;;18.23;11.13;;;6.40;99.90;;;;;;5048575;28;20283;-82
2022/05/02 02:00:20;;;;;;;16.30;10.13;;;6.40;99.90;;;;;;5041654;28;20044;-82
2022/05/02 02:02:46;;;;;;;15.80;11.00;;;6.50;99.90;;;;;;5042331;28;20311;-83
2022/05/02 02:07:56;;;;;;;17.00;11.18;;;6.40;99.90;;;;;;5043919;28;20110;-82
2022/05/02 02:10:22;;;;;;;15.10;10.35;;;7.10;99.90;;;;;;5051996;28;20496;-82
2022/05/02 02:12:47;;;;;;;15.48;11.15;;;6.30;99.90;;;;;;5039168;28;20094;-81
2022/05/02 02:15:14;;;;;;;17.10;11.93;;;6.30;99.90;;;;;;5047226;28;20037;-82
2022/05/02 02:17:44;;;;;;;15.38;11.93;;;6.50;99.90;;;;;;5044191;28;20049;-83
2022/05/02 02:20:11;;;;;;;15.93;11.88;;;6.30;99.90;;;;;;5039324;28;20045;-81
2022/05/02 02:22:37;;;;;;;17.35;11.88;;;6.30;99.90;;;;;;5041356;28;20069;-82
2022/05/02 02:25:04;;;;;;;17.23;12.07;;;6.30;99.90;;;;;;5018116;28;20093;-82
2022/05/02 02:27:31;;;;;;;17.92;12.07;;;6.30;99.90;;;;;;5042033;28;20119;-82
2022/05/02 02:29:57;;;;;;;16.45;11.50;;;6.20;99.90;;;;;;5043484;28;20049;-82
2022/05/02 02:32:23;;;;;;;15.35;11.85;;;6.30;99.90;;;;;;5042433;28;20036;-82
2022/05/02 02:34:49;;;;;;;15.95;11.60;;;6.30;99.90;;;;;;5046920;28;20439;-81
2022/05/02 02:37:15;;;;;;;17.80;11.70;;;6.30;99.90;;;;;;5030249;28;20032;-81
2022/05/02 02:39:42;;;;;;;16.73;11.93;;;6.60;99.90;;;;;;5049635;28;20090;-82
2022/05/02 02:42:08;;;;;;;16.25;11.20;;;6.30;99.90;;;;;;5050812;28;20094;-83
2022/05/02 02:44:34;;;;;;;15.07;11.75;;;6.20;99.90;;;;;;5033886;28;20037;-82
2022/05/02 02:47:00;;;;;;;16.35;12.25;;;6.20;99.90;;;;;;5052978;28;20055;-82
2022/05/02 02:49:26;;;;;;;17.83;12.48;;;6.10;99.90;;;;;;5052188;28;20043;-81
2022/05/02 02:51:51;;;;;;;18.13;12.83;;;6.10;99.90;;;;;;5053586;28;20032;-81
2022/05/02 02:54:17;;;;;;;15.75;11.80;;;6.70;99.90;;;;;;5051522;28;20055;-81
2022/05/02 02:56:43;;;;;;;18.60;11.60;;;6.00;99.90;;;;;;5051652;28;20041;-81
2022/05/02 02:59:09;;;;;;;17.38;11.93;;;6.00;99.90;;;;;;5052775;28;20040;-82
2022/05/02 03:01:36;;;;;;;16.52;11.63;;;6.00;99.90;;;;;;5050535;28;20128;-82
2022/05/02 03:06:01;;;;;;;17.92;11.27;;;6.10;99.90;;;;;;5053143;28;20047;-82
2022/05/02 03:06:47;;;;;;;17.80;12.50;;;6.00;99.90;;;;;;5052354;28;20400;-81
2022/05/02 03:09:13;;;;;;;18.27;12.43;;;6.00;99.90;;;;;;5050332;28;20129;-81
2022/05/02 03:11:39;;;;;;;19.00;13.20;;;6.00;99.90;;;;;;5053678;28;20051;-83
2022/05/02 03:14:04;;;;;;;18.33;13.32;;;6.00;99.90;;;;;;5053214;28;20029;-82
2022/05/02 03:16:30;;;;;;;16.17;13.10;;;6.00;99.90;;;;;;5053392;28;20040;-81
2022/05/02 03:18:56;;;;;;;18.17;13.60;;;6.00;99.90;;;;;;5050519;28;20488;-81
2022/05/02 03:21:21;;;;;;;17.57;13.87;;;6.00;99.90;;;;;;5053021;28;20052;-82
2022/05/02 03:23:47;;;;;;;19.20;14.70;;;6.00;99.90;;;;;;5052452;28;20044;-83
2022/05/02 03:26:12;;;;;;;18.10;13.87;;;6.00;99.90;;;;;;5052288;28;20101;-82
2022/05/02 03:28:38;;;;;;;17.90;12.90;;;5.90;99.90;;;;;;5051158;28;20079;-81
2022/05/02 03:31:04;;;;;;;17.67;13.47;;;5.90;99.90;;;;;;5049494;28;20044;-82
2022/05/02 03:33:30;;;;;;;17.57;14.30;;;6.00;99.90;;;;;;5040977;28;20043;-82
2022/05/02 03:35:55;;;;;;;17.92;13.52;;;5.90;99.90;;;;;;5033751;28;20041;-83
2022/05/02 03:38:21;;;;;;;18.70;13.95;;;5.90;99.90;;;;;;5050101;28;20045;-82
2022/05/02 03:40:47;;;;;;;16.00;13.33;;;5.90;99.90;;;;;;5050764;28;20040;-83
2022/05/02 03:43:13;;;;;;;18.23;13.38;;;5.90;99.90;;;;;;5049338;28;20076;-82
2022/05/02 03:45:38;;;;;;;18.63;13.07;;;5.90;99.90;;;;;;5041294;28;20040;-82
2022/05/02 03:48:05;;;;;;;17.87;13.20;;;6.70;99.90;;;;;;5046866;28;20040;-82
2022/05/02 03:50:30;;;;;;;;;;;5.90;99.90;;;;;;5036481;28;20052;-82
2022/05/02 03:52:57;;;;;;;18.92;13.65;;;5.90;99.90;;;;;;5040908;28;19917;-82
2022/05/02 03:55:22;;;;;;;22.23;15.10;;;6.30;99.90;;;;;;5046611;28;20036;-83
2022/05/02 03:57:48;;;;;;;19.75;14.63;;;5.80;99.90;;;;;;5040261;28;20063;-83
2022/05/02 04:00:14;;;;;;;24.27;16.40;;;5.90;99.90;;;;;;5039807;28;20037;-82
2022/05/02 04:02:41;;;;;;;23.60;16.30;;;5.80;99.90;;;;;;5047581;28;20052;-82
2022/05/02 04:05:07;;;;;;;21.58;16.55;;;6.30;99.90;;;;;;5047733;28;20489;-82
2022/05/02 04:07:33;;;;;;;26.75;18.30;;;5.80;99.90;;;;;;5050037;28;20047;-82
2022/05/02 04:09:59;;;;;;;22.15;17.15;;;5.80;99.90;;;;;;5049380;28;20119;-82
2022/05/02 04:12:25;;;;;;;23.17;16.47;;;5.80;99.90;;;;;;5051152;28;20082;-82
2022/05/02 04:14:51;;;;;;;21.10;17.05;;;5.80;99.90;;;;;;5036489;28;20310;-82
2022/05/02 04:17:16;;;;;;;24.75;17.13;;;5.80;99.90;;;;;;5041273;28;20064;-83
2022/05/02 04:19:42;;;;;;;24.70;17.87;;;5.80;99.90;;;;;;5044570;28;20040;-83
2022/05/02 04:22:08;;;;;;;23.27;16.70;;;5.80;99.90;;;;;;5040097;28;20126;-82
2022/05/02 04:24:34;;;;;;;22.73;16.47;;;5.80;99.90;;;;;;5044125;28;20068;-83
2022/05/02 04:27:00;;;;;;;21.33;15.77;;;6.00;99.90;;;;;;5041655;28;20312;-84
2022/05/02 04:29:26;;;;;;;22.98;17.08;;;5.90;99.90;;;;;;5040264;28;20275;-82
2022/05/02 04:31:51;;;;;;;21.17;15.20;;;6.00;99.90;;;;;;5051617;28;20078;-83
2022/05/02 04:34:17;;;;;;;20.73;14.48;;;6.10;99.90;;;;;;5050808;28;20278;-83
2022/05/02 04:36:43;;;;;;;18.45;13.75;;;5.90;99.90;;;;;;5039931;28;20044;-83
2022/05/02 04:39:09;;;;;;;18.13;14.07;;;5.90;99.90;;;;;;5045646;28;20052;-82
2022/05/02 04:41:34;;;;;;;21.40;13.97;;;6.00;99.90;;;;;;5038986;28;20315;-83
2022/05/02 04:44:00;;;;;;;20.87;14.63;;;6.00;99.90;;;;;;5024822;28;20087;-82
2022/05/02 04:46:26;;;;;;;20.27;14.57;;;6.30;99.90;;;;;;5051381;28;20681;-82
2022/05/02 04:48:52;;;;;;;;;;;6.00;99.90;;;;;;5051802;28;20042;-85
2022/05/02 04:51:18;;;;;;;19.45;14.35;;;6.00;99.90;;;;;;5023040;28;20896;-82
2022/05/02 04:53:44;;;;;;;18.00;14.17;;;6.10;99.90;;;;;;5055314;28;20040;-82
2022/05/02 04:56:09;;;;;;;20.35;15.38;;;6.20;99.90;;;;;;5036939;28;20040;-82
2022/05/02 04:58:35;;;;;;;17.60;13.70;;;6.30;99.90;;;;;;5054106;28;20048;-82
2022/05/02 05:01:04;;;;;;;18.30;14.27;;;6.10;99.90;;;;;;5054444;28;20032;-82
2022/05/02 05:03:30;;;;;;;17.85;13.38;;;6.10;99.90;;;;;;5038630;28;20540;-82
2022/05/02 05:05:56;;;;;;;17.83;12.90;;;6.90;99.90;;;;;;5055125;28;20116;-82
2022/05/02 05:08:22;;;;;;;18.00;12.57;;;6.20;99.90;;;;;;5055800;28;20442;-83
2022/05/02 05:11:00;;;;;;;19.63;13.02;;;6.20;99.90;;;;;;5054438;28;20036;-82
2022/05/02 05:13:34;;;;;;;17.85;13.35;;;6.20;99.90;;;;;;5051013;28;20038;-82
2022/05/02 05:16:22;;;;;;;17.27;12.73;;;6.30;99.90;;;;;;5036219;28;20103;-83
2022/05/02 05:18:57;;;;;;;17.27;12.70;;;6.40;99.90;;;;;;5067847;28;20028;-82
2022/05/02 05:21:48;;;;;;;15.73;11.82;;;6.50;99.90;;;;;;5069184;28;20112;-82
2022/05/02 05:24:41;;;;;;;15.50;11.68;;;6.60;99.90;;;;;;5054359;28;20124;-82
2022/05/02 05:27:40;;;;;;;16.50;12.48;;;6.70;99.90;;;;;;5054152;28;20043;-82
2022/05/02 05:30:10;;;;;;;19.60;12.55;;;6.80;99.90;;;;;;5043337;28;20049;-82
2022/05/02 05:32:47;;;;;;;15.88;12.10;;;7.00;99.90;;;;;;5027643;28;20033;-82
2022/05/02 05:35:26;;;;;;;19.90;12.48;;;7.00;99.90;;;;;;5052357;28;20531;-82
2022/05/02 05:38:00;;;;;;;18.48;12.82;;;7.20;99.90;;;;;;5052750;28;20062;-82
2022/05/02 05:40:49;;;;;;;18.88;12.60;;;7.30;99.90;;;;;;5036761;28;20079;-82
2022/05/02 05:43:20;;;;;;;19.17;11.85;;;7.50;99.90;;;;;;5052240;28;20067;-82
2022/05/02 05:46:02;;;;;;;16.65;12.57;;;7.60;99.90;;;;;;5065526;28;20174;-82
2022/05/02 05:48:37;;;;;;;18.05;12.48;;;7.80;99.90;;;;;;5051917;28;20165;-83
2022/05/02 05:51:36;;;;;;;17.15;12.35;;;8.00;99.90;;;;;;5052335;28;20037;-82
2022/05/02 05:54:40;;;;;;;18.40;12.65;;;8.20;99.90;;;;;;5052212;28;20120;-82
2022/05/02 05:57:23;;;;;;;16.95;12.50;;;8.30;99.90;;;;;;5052925;28;20080;-82
2022/05/02 06:00:11;;;;;;;19.30;12.68;;;8.50;99.90;;;;;;5052300;28;20036;-82
2022/05/02 06:03:13;;;;;;;20.55;12.32;;;8.70;99.90;;;;;;5049275;28;20033;-82
2022/05/02 06:05:41;;;;;;;17.30;12.30;;;8.90;99.90;;;;;;5007433;28;20102;-83
2022/05/02 06:08:21;;;;;;;19.25;12.38;;;9.00;99.90;;;;;;5021298;28;20048;-82
2022/05/02 06:10:50;;;;;;;18.48;12.25;;;9.10;99.90;;;;;;5052680;28;20131;-82
2022/05/02 06:13:17;;;;;;;17.83;12.27;;;9.20;99.90;;;;;;5060621;28;20044;-82
2022/05/02 06:18:37;;;;;;;16.95;9.95;;;9.70;99.90;;;;;;5053320;28;20079;-82
2022/05/02 06:21:07;;;;;;;15.70;10.30;;;10.20;99.90;;;;;;5042391;28;20075;-82
2022/05/02 06:23:40;;;;;;;14.85;9.90;;;10.80;99.90;;;;;;5045009;28;20037;-83
2022/05/02 06:26:06;;;;;;;14.48;9.45;;;11.10;99.90;;;;;;5053312;28;20037;-82
2022/05/02 06:28:43;;;;;;;14.80;9.68;;;11.40;99.90;;;;;;5036138;28;20102;-82
2022/05/02 06:31:21;;;;;;;14.07;8.75;;;11.70;99.90;;;;;;5068111;28;20101;-82
2022/05/02 06:33:49;;;;;;;11.30;9.05;;;11.80;99.90;;;;;;5047061;28;20503;-82
2022/05/02 06:36:48;;;;;;;14.85;9.63;;;12.00;99.90;;;;;;5044262;28;20116;-82
2022/05/02 06:39:35;;;;;;;13.52;9.15;;;12.30;99.90;;;;;;5044216;28;20365;-81
2022/05/02 06:42:01;;;;;;;13.68;9.20;;;12.40;99.90;;;;;;5046644;28;20111;-81
2022/05/02 06:44:56;;;;;;;15.67;9.17;;;12.40;99.90;;;;;;5043560;28;20147;-82
2022/05/02 06:47:35;;;;;;;16.95;8.98;;;12.70;99.90;;;;;;5024521;28;20040;-81
2022/05/02 06:50:05;;;;;;;13.50;8.98;;;12.80;99.90;;;;;;5051150;28;20047;-81
2022/05/02 06:52:52;;;;;;;11.48;9.00;;;12.70;99.90;;;;;;5053082;28;20039;-82
2022/05/02 06:55:34;;;;;;;12.20;8.75;;;12.70;99.90;;;;;;5025033;28;20123;-81
2022/05/02 06:58:41;;;;;;;12.43;8.98;;;13.00;99.90;;;;;;5051505;28;20048;-81
2022/05/02 07:01:25;;;;;;;13.63;9.27;;;13.10;99.90;;;;;;5026690;28;20038;-82
2022/05/02 07:04:17;;;;;;;11.82;9.10;;;13.50;99.90;;;;;;5028286;28;20049;-82
2022/05/02 07:07:13;;;;;;;11.48;9.43;;;13.30;99.90;;;;;;5041091;28;20044;-82
2022/05/02 07:09:51;;;;;;;11.60;9.20;;;13.50;99.90;;;;;;5050704;28;20028;-82
2022/05/02 07:12:21;;;;;;;11.23;7.78;;;13.70;99.90;;;;;;5050490;28;20483;-82
2022/05/02 07:15:06;;;;;;;9.32;7.60;;;13.90;99.90;;;;;;5035086;28;20064;-81
2022/05/02 07:18:03;;;;;;;10.45;7.43;;;14.10;99.90;;;;;;5041064;28;20052;-81
2022/05/02 07:20:39;;;;;;;11.05;7.68;;;14.00;99.90;;;;;;5052932;28;20852;-81
2022/05/02 07:23:24;;;;;;;10.30;7.70;;;14.20;99.90;;;;;;5051106;28;20071;-82
2022/05/02 07:26:02;;;;;;;11.20;7.68;;;14.10;99.90;;;;;;5044131;28;20063;-81
2022/05/02 07:28:47;;;;;;;12.82;7.13;;;14.30;99.90;;;;;;5049780;28;20120;-81
2022/05/02 07:31:18;;;;;;;11.65;7.18;;;14.60;99.90;;;;;;5049832;28;20111;-81
2022/05/02 07:33:47;;;;;;;12.25;7.30;;;14.80;99.90;;;;;;5052515;28;20040;-81
2022/05/02 07:36:22;;;;;;;10.27;6.82;;;14.90;99.90;;;;;;5036145;28;20082;-82
2022/05/02 07:38:54;;;;;;;9.27;6.20;;;15.20;99.90;;;;;;5032550;28;20068;-80
2022/05/02 07:41:25;;;;;;;9.75;6.88;;;15.30;99.90;;;;;;5052207;28;20041;-81
2022/05/02 07:44:07;;;;;;;7.82;5.95;;;15.10;99.90;;;;;;5050324;28;20051;-82
2022/05/02 07:46:39;;;;;;;7.70;6.20;;;15.40;99.90;;;;;;5047984;28;20073;-81
2022/05/02 07:49:06;;;;;;;9.43;6.30;;;15.70;99.90;;;;;;5031863;28;20032;-80
2022/05/02 07:51:37;;;;;;;7.88;6.07;;;15.90;99.90;;;;;;5051520;28;20511;-81
2022/05/02 07:54:04;;;;;;;8.55;6.18;;;15.90;99.90;;;;;;5050320;28;20044;-82
2022/05/02 07:56:32;;;;;;;8.30;5.72;;;15.80;99.90;;;;;;5051772;28;20068;-81
2022/05/02 07:58:59;;;;;;;8.98;5.53;;;15.80;99.90;;;;;;5035080;28;20590;-82
2022/05/02 08:01:26;;;;;;;7.28;5.55;;;16.10;99.90;;;;;;5051635;28;20029;-81
2022/05/02 08:03:52;;;;;;;6.10;5.47;;;16.30;99.90;;;;;;5050595;28;20082;-81
2022/05/02 08:06:43;;;;;;;8.40;5.30;;;16.10;99.90;;;;;;5050821;28;20033;-81
2022/05/02 08:09:50;;;;;;;8.95;5.85;;;16.30;99.90;;;;;;5049945;28;20427;-81
2022/05/02 08:12:37;;;;;;;9.77;5.15;;;16.10;99.90;;;;;;5051841;28;20036;-81
2022/05/02 08:15:20;;;;;;;9.55;5.65;;;16.30;99.90;;;;;;5038984;28;20032;-81
2022/05/02 08:17:49;;;;;;;8.98;5.40;;;16.10;99.90;;;;;;5047467;28;20036;-82
2022/05/02 08:20:36;;;;;;;7.70;5.20;;;16.20;99.90;;;;;;5051165;28;20037;-81
2022/05/02 08:29:38;;;;;;;8.25;5.10;;;16.90;99.90;;;;;;5048711;28;20056;-81
2022/05/02 08:32:12;;;;;;;8.32;5.35;;;17.60;99.90;;;;;;5051744;28;20049;-81
2022/05/02 08:34:41;;;;;;;8.00;5.38;;;17.70;99.90;;;;;;5050965;28;20037;-82
2022/05/02 08:37:36;;;;;;;8.57;5.70;;;17.70;99.90;;;;;;5051642;28;20037;-81
2022/05/02 08:40:09;;;;;;;6.95;5.55;;;18.10;99.90;;;;;;5049885;28;20106;-81
2022/05/02 08:42:44;;;;;;;9.00;5.75;;;18.30;99.90;;;;;;5050454;28;20079;-81
2022/05/02 08:45:33;;;;;;;6.63;5.82;;;18.30;99.90;;;;;;5067796;28;20055;-81
2022/05/02 08:48:48;;;;;;;9.18;5.90;;;18.40;99.90;;;;;;5040161;28;20045;-81
2022/05/02 08:51:31;;;;;;;7.85;5.93;;;18.00;99.90;;;;;;5047531;28;20099;-81
2022/05/02 08:54:03;;;;;;;9.35;5.60;;;18.40;99.90;;;;;;5049597;28;20464;-81
2022/05/02 08:56:57;;;;;;;9.13;5.90;;;18.40;99.50;;;;;;5051202;28;20036;-81
2022/05/02 08:59:56;;;;;;;7.95;5.72;;;18.60;99.60;;;;;;5065814;28;20094;-81
2022/05/02 09:02:43;;;;;;;8.32;5.78;;;18.80;98.90;;;;;;5042254;28;20099;-82
2022/05/02 09:05:46;;;;;;;6.97;5.47;;;19.10;98.30;;;;;;5044636;28;20067;-80
2022/05/02 09:08:24;;;;;;;6.05;5.10;;;19.30;98.00;;;;;;5037260;28;20098;-81
2022/05/02 09:11:35;;;;;;;7.78;5.45;;;19.20;98.40;;;;;;5066422;28;20033;-81
2022/05/02 09:14:22;;;;;;;8.13;5.35;;;19.30;97.20;;;;;;5015334;28;20045;-81
2022/05/02 09:17:25;;;;;;;7.78;5.38;;;19.90;96.50;;;;;;5051758;28;20187;-81
2022/05/02 09:20:18;;;;;;;8.43;6.55;;;20.10;96.10;;;;;;5040561;28;20051;-81
2022/05/02 09:23:41;;;;;;;7.78;5.65;;;20.00;95.90;;;;;;5051676;28;20040;-82
2022/05/02 09:26:22;;;;;;;7.25;5.40;;;20.00;94.50;;;;;;4995398;28;20045;-81
2022/05/02 09:28:53;;;;;;;6.38;5.30;;;21.00;95.60;;;;;;5011937;28;20541;-81
2022/05/02 09:31:47;;;;;;;8.68;5.95;;;20.90;94.10;;;;;;5026783;28;20045;-81
2022/05/02 09:34:18;;;;;;;7.82;4.95;;;20.50;93.00;;;;;;5066996;28;20064;-81
2022/05/02 09:37:02;;;;;;;7.30;5.70;;;20.50;94.00;;;;;;5053986;28;20041;-81
2022/05/02 09:39:43;;;;;;;7.15;5.18;;;20.10;92.40;;;;;;5035823;28;20040;-82
2022/05/02 09:42:31;;;;;;;7.18;4.95;;;20.00;93.40;;;;;;5052578;28;20040;-81
2022/05/02 09:51:17;;;;;;;6.38;4.60;;;20.30;91.50;;;;;;5044366;28;20048;-82
2022/05/02 09:57:25;;;;;;;7.70;4.70;;;20.90;90.70;;;;;;5061925;28;20537;-80
2022/05/02 10:02:45;;;;;;;7.32;4.60;;;21.70;88.80;;;;;;5066973;28;20078;-81
2022/05/02 10:05:29;;;;;;;7.53;4.68;;;22.20;88.10;;;;;;5050489;28;20542;-81
2022/05/02 10:08:09;;;;;;;7.35;4.82;;;22.40;88.50;;;;;;5051251;28;20064;-81
2022/05/02 10:10:48;;;;;;;7.65;4.70;;;22.40;86.40;;;;;;5049014;28;20480;-81
2022/05/02 10:13:32;;;;;;;6.40;4.60;;;22.60;86.70;;;;;;5045215;28;20076;-81
2022/05/02 10:16:19;;;;;;;6.45;4.28;;;22.90;83.90;;;;;;5045442;28;20032;-82
2022/05/02 10:18:55;;;;;;;6.18;4.28;;;23.10;83.20;;;;;;5051926;28;20040;-80
2022/05/02 10:21:39;;;;;;;;;;;23.30;84.30;;;;;;5054009;28;20044;-81
2022/05/02 10:24:24;;;;;;;7.10;3.92;;;23.60;83.30;;;;;;5060061;28;20017;-81
2022/05/02 10:27:05;;;;;;;6.53;3.80;;;23.70;80.60;;;;;;5052094;28;20048;-80
2022/05/02 10:29:38;;;;;;;5.93;4.00;;;23.50;77.40;;;;;;5034953;28;20056;-80
2022/05/02 10:32:07;;;;;;;7.88;3.95;;;23.40;80.50;;;;;;5049559;28;20493;-80
2022/05/02 10:34:36;;;;;;;6.10;3.88;;;23.30;80.30;;;;;;5053238;28;20111;-81
2022/05/02 10:37:06;;;;;;;5.85;4.10;;;23.80;78.90;;;;;;5044976;28;20507;-81
2022/05/02 10:39:40;;;;;;;6.68;3.95;;;24.10;78.50;;;;;;5047077;28;20527;-80
2022/05/02 10:42:08;;;;;;;5.18;3.88;;;23.50;76.70;;;;;;5050892;28;20505;-80
2022/05/02 10:44:46;;;;;;;4.38;3.88;;;23.90;78.20;;;;;;5053095;28;20049;-81
2022/05/02 10:47:14;;;;;;;5.70;3.75;;;24.70;75.50;;;;;;5051801;28;20041;-80
2022/05/02 10:50:14;;;;;;;4.15;3.60;;;24.70;76.70;;;;;;5036593;28;20044;-80
2022/05/02 10:52:46;;;;;;;5.97;4.40;;;24.40;75.30;;;;;;5051007;28;20059;-81
2022/05/02 10:55:23;;;;;;;6.72;4.38;;;24.40;77.50;;;;;;5053515;28;20067;-80
2022/05/02 10:57:55;;;;;;;5.10;4.13;;;24.80;76.80;;;;;;5054116;28;20041;-79
2022/05/02 11:00:23;;;;;;;5.20;4.68;;;24.70;75.40;;;;;;5044871;28;20530;-80
2022/05/02 11:03:00;;;;;;;5.32;4.13;;;24.90;75.70;;;;;;5043990;28;20073;-81
2022/05/02 11:05:27;;;;;;;6.57;4.97;;;24.50;75.50;;;;;;5051651;28;20428;-81
2022/05/02 11:07:57;;;;;;;6.68;4.60;;;24.50;75.90;;;;;;5043979;28;20052;-81
2022/05/02 11:10:29;;;;;;;6.55;4.80;;;24.60;75.50;;;;;;5026650;28;20485;-81
2022/05/02 11:13:11;;;;;;;7.20;5.13;;;24.80;77.70;;;;;;5044379;28;20607;-80
2022/05/02 11:15:53;;;;;;;8.32;4.72;;;24.80;75.50;;;;;;5052034;28;20477;-81
2022/05/02 11:21:21;;;;;;;6.60;4.95;;;24.70;77.40;;;;;;5041796;28;20044;-80
2022/05/02 11:23:57;;;;;;;5.88;4.47;;;24.50;76.60;;;;;;5050926;28;20041;-81
2022/05/02 11:26:37;;;;;;;5.55;4.32;;;25.00;76.10;;;;;;5051541;28;20456;-80
2022/05/02 11:29:38;;;;;;;5.20;4.70;;;24.70;75.70;;;;;;5052606;28;20130;-80
2022/05/02 11:32:09;;;;;;;5.20;4.32;;;24.50;74.30;;;;;;5027297;28;20040;-81
2022/05/02 11:34:56;;;;;;;6.95;4.80;;;24.50;76.60;;;;;;5043401;28;20067;-80
2022/05/02 11:37:51;;;;;;;6.00;4.32;;;24.30;75.80;;;;;;5069479;28;20503;-79
2022/05/02 11:40:18;;;;;;;6.10;4.70;;;24.30;74.40;;;;;;5043046;28;20150;-80
2022/05/02 11:42:48;;;;;;;5.57;4.30;;;24.20;74.00;;;;;;5036660;28;20032;-80
2022/05/02 11:45:17;;;;;;;5.85;4.18;;;24.50;73.90;;;;;;5050613;28;20067;-80
2022/05/02 11:47:54;;;;;;;7.13;4.55;;;24.20;74.10;;;;;;5052787;28;20122;-80
2022/05/02 11:50:22;;;;;;;4.97;3.78;;;24.60;74.60;;;;;;5050185;28;20033;-79
2022/05/02 11:52:54;;;;;;;6.22;4.15;;;24.80;74.20;;;;;;5051431;28;20036;-80
2022/05/02 11:55:28;;;;;;;7.00;4.40;;;24.40;72.20;;;;;;5052327;28;20043;-80
2022/05/02 11:58:09;;;;;;;4.32;3.92;;;24.00;72.40;;;;;;5050687;28;20045;-80
2022/05/02 12:00:37;;;;;;;6.50;4.05;;;24.20;73.30;;;;;;5060002;28;20102;-79
2022/05/02 12:03:15;;;;;;;5.80;3.88;;;24.40;72.20;;;;;;5045504;28;20499;-79
2022/05/02 12:05:43;;;;;;;4.45;3.50;;;24.60;72.50;;;;;;5042121;28;20045;-80
2022/05/02 12:08:21;;;;;;;5.05;3.67;;;24.80;70.80;;;;;;5042242;28;20638;-79
2022/05/02 12:10:47;;;;;;;6.00;4.03;;;25.10;72.20;;;;;;5042116;28;20041;-80
2022/05/02 12:13:19;;;;;;;6.30;3.95;;;25.30;71.40;;;;;;5051963;28;20040;-79
2022/05/02 12:15:55;;;;;;;4.35;3.40;;;25.60;72.90;;;;;;5049117;28;20033;-80
2022/05/02 12:18:21;;;;;;;5.50;3.40;;;25.60;69.50;;;;;;5049816;28;20613;-80
2022/05/02 12:20:58;;;;;;;6.05;3.17;;;25.20;70.30;;;;;;5051270;28;20131;-78
2022/05/02 12:23:31;;;;;;;5.43;3.55;;;25.60;72.10;;;;;;5045520;28;20472;-78
2022/05/02 12:25:57;;;;;;;4.82;3.75;;;25.30;70.40;;;;;;5049717;28;20040;-79
2022/05/02 12:28:45;;;;;;;5.38;3.33;;;25.50;70.90;;;;;;5045033;28;20060;-78
2022/05/02 12:31:17;;;;;;;5.35;3.10;;;25.60;71.50;;;;;;5034891;28;20103;-79
2022/05/02 12:33:46;;;;;;;3.58;2.78;;;25.30;72.10;;;;;;5039682;28;20049;-80
2022/05/02 12:36:17;;;;;;;4.28;3.15;;;25.30;71.30;;;;;;5041545;28;20119;-79
2022/05/02 12:39:01;;;;;;;4.28;2.70;;;25.20;70.50;;;;;;5036746;28;20043;-78
2022/05/02 12:41:30;;;;;;;5.22;3.20;;;25.00;71.10;;;;;;5041839;28;20057;-79
2022/05/02 12:44:15;;;;;;;4.10;2.97;;;25.00;70.70;;;;;;5035674;28;20049;-79
2022/05/02 12:46:48;;;;;;;5.78;3.22;;;24.70;70.90;;;;;;5038406;28;20124;-79
2022/05/02 12:49:30;;;;;;;5.60;3.30;;;24.70;73.90;;;;;;5041043;28;20515;-78
2022/05/02 12:51:57;;;;;;;4.35;3.53;;;24.90;74.10;;;;;;5026214;28;20037;-78
2022/05/02 12:54:27;;;;;;;5.07;3.20;;;25.00;73.50;;;;;;5034190;28;20109;-77
2022/05/02 13:02:40;;;;;;;4.50;3.15;;;25.30;74.20;;;;;;5042527;28;20092;-78
2022/05/02 13:05:31;;;;;;;5.88;3.58;;;25.00;73.70;;;;;;5045093;28;20041;-79
2022/05/02 13:08:06;;;;;;;7.40;3.55;;;24.90;74.50;;;;;;5044680;28;20426;-78
2022/05/02 13:10:32;;;;;;;6.85;3.65;;;24.90;74.20;;;;;;5040795;28;20159;-79
2022/05/02 13:13:03;;;;;;;7.72;3.67;;;24.70;74.70;;;;;;5042899;28;20515;-79
2022/05/02 13:15:32;;;;;;;5.10;3.13;;;25.00;74.40;;;;;;5041156;28;20037;-78
2022/05/02 13:18:01;;;;;;;5.85;3.58;;;25.10;73.70;;;;;;5042366;28;20179;-77
2022/05/02 13:20:29;;;;;;;5.80;3.58;;;25.20;75.60;;;;;;5044464;28;20120;-79
2022/05/02 13:23:13;;;;;;;5.55;3.45;;;25.10;74.00;;;;;;5042491;28;20044;-78
2022/05/02 13:25:48;;;;;;;4.38;3.13;;;24.00;74.10;;;;;;5039341;28;20124;-78
2022/05/02 13:28:23;;;;;;;4.93;3.28;;;23.70;74.20;;;;;;5046761;28;20482;-77
2022/05/02 13:31:27;;;;;;;4.95;3.60;;;24.00;74.40;;;;;;5025216;28;20425;-78
2022/05/02 13:33:59;;;;;;;6.88;3.90;;;24.10;76.70;;;;;;5024471;28;20042;-78
2022/05/02 13:36:26;;;;;;;4.35;3.15;;;24.30;76.70;;;;;;5040868;28;20103;-79
2022/05/02 13:39:27;;;;;;;6.93;3.65;;;24.60;75.40;;;;;;5034789;28;20041;-79
2022/05/02 13:42:03;;;;;;;4.95;3.30;;;24.20;75.10;;;;;;5048124;28;20072;-79
2022/05/02 13:44:52;;;;;;;5.57;3.80;;;24.40;75.30;;;;;;5042354;28;20078;-79
2022/05/02 13:47:22;;;;;;;3.85;3.33;;;24.20;77.10;;;;;;5039588;28;20052;-78
2022/05/02 13:50:11;;;;;;;9.25;3.65;;;23.70;75.50;;;;;;5023215;28;20052;-77
2022/05/02 13:53:19;;;;;;;4.82;3.65;;;23.50;77.20;;;;;;5041381;28;20072;-77
2022/05/02 13:55:45;;;;;;;6.47;3.75;;;22.90;75.60;;;;;;5040286;28;20033;-77